sensor_id;sensor_type;location;lat;lon;timestamp;P1;durP1;ratioP1;P2;durP2;ratioP2
73276;SDS011;61501;43.316;5.372;2023-05-27T00:01:17;11.85;;;7.28;;
73276;SDS011;61501;43.316;5.372;2023-05-27T00:03:44;10.57;;;7.45;;
73276;SDS011;61501;43.316;5.372;2023-05-27T00:06:10;14.60;;;9.05;;
73276;SDS011;61501;43.316;5.372;2023-05-27T00:08:36;12.13;;;7.70;;
73276;SDS011;61501;43.316;5.372;2023-05-27T00:11:02;10.65;;;9.23;;
73276;SDS011;61501;43.316;5.372;2023-05-27T00:13:30;14.77;;;10.07;;
73276;SDS011;61501;43.316;5.372;2023-05-27T00:15:56;16.75;;;9.85;;
73276;SDS011;61501;43.316;5.372;2023-05-27T00:18:22;11.82;;;9.15;;
73276;SDS011;61501;43.316;5.372;2023-05-27T00:20:47;12.55;;;8.65;;
73276;SDS011;61501;43.316;5.372;2023-05-27T00:23:13;15.35;;;8.88;;
73276;SDS011;61501;43.316;5.372;2023-05-27T00:25:39;12.20;;;9.18;;
73276;SDS011;61501;43.316;5.372;2023-05-27T00:28:05;12.95;;;9.05;;
73276;SDS011;61501;43.316;5.372;2023-05-27T00:30:31;14.05;;;10.05;;
73276;SDS011;61501;43.316;5.372;2023-05-27T00:32:56;16.83;;;10.65;;
73276;SDS011;61501;43.316;5.372;2023-05-27T00:35:22;14.02;;;9.77;;
73276;SDS011;61501;43.316;5.372;2023-05-27T00:37:48;13.68;;;8.77;;
73276;SDS011;61501;43.316;5.372;2023-05-27T00:40:15;9.57;;;7.82;;
73276;SDS011;61501;43.316;5.372;2023-05-27T00:42:46;13.38;;;8.23;;
73276;SDS011;61501;43.316;5.372;2023-05-27T00:45:11;14.57;;;8.82;;
73276;SDS011;61501;43.316;5.372;2023-05-27T00:47:37;10.98;;;7.70;;
73276;SDS011;61501;43.316;5.372;2023-05-27T00:50:04;13.50;;;7.72;;
73276;SDS011;61501;43.316;5.372;2023-05-27T00:52:30;10.70;;;7.25;;
73276;SDS011;61501;43.316;5.372;2023-05-27T00:54:56;9.68;;;6.68;;
73276;SDS011;61501;43.316;5.372;2023-05-27T00:57:24;10.25;;;6.85;;
73276;SDS011;61501;43.316;5.372;2023-05-27T00:59:51;11.55;;;7.50;;
73276;SDS011;61501;43.316;5.372;2023-05-27T01:02:17;12.07;;;7.72;;
73276;SDS011;61501;43.316;5.372;2023-05-27T01:04:43;11.63;;;8.52;;
73276;SDS011;61501;43.316;5.372;2023-05-27T01:07:21;10.38;;;7.90;;
73276;SDS011;61501;43.316;5.372;2023-05-27T01:15:38;10.48;;;7.45;;
73276;SDS011;61501;43.316;5.372;2023-05-27T01:18:06;12.18;;;7.63;;
73276;SDS011;61501;43.316;5.372;2023-05-27T01:20:33;12.30;;;6.95;;
73276;SDS011;61501;43.316;5.372;2023-05-27T01:23:05;11.45;;;7.70;;
73276;SDS011;61501;43.316;5.372;2023-05-27T01:25:36;12.23;;;7.60;;
73276;SDS011;61501;43.316;5.372;2023-05-27T01:28:02;14.75;;;7.55;;
73276;SDS011;61501;43.316;5.372;2023-05-27T01:30:27;14.52;;;7.80;;
73276;SDS011;61501;43.316;5.372;2023-05-27T01:32:54;10.55;;;6.80;;
73276;SDS011;61501;43.316;5.372;2023-05-27T01:35:35;13.13;;;7.07;;
73276;SDS011;61501;43.316;5.372;2023-05-27T01:38:16;11.07;;;7.32;;
73276;SDS011;61501;43.316;5.372;2023-05-27T01:40:44;13.35;;;6.72;;
73276;SDS011;61501;43.316;5.372;2023-05-27T01:43:11;14.35;;;7.97;;
73276;SDS011;61501;43.316;5.372;2023-05-27T01:45:38;11.25;;;7.28;;
73276;SDS011;61501;43.316;5.372;2023-05-27T01:48:04;12.88;;;8.07;;
73276;SDS011;61501;43.316;5.372;2023-05-27T01:50:30;12.30;;;7.32;;
73276;SDS011;61501;43.316;5.372;2023-05-27T01:52:56;10.07;;;7.00;;
73276;SDS011;61501;43.316;5.372;2023-05-27T01:55:22;13.57;;;7.38;;
73276;SDS011;61501;43.316;5.372;2023-05-27T01:57:48;10.32;;;6.88;;
73276;SDS011;61501;43.316;5.372;2023-05-27T02:00:14;10.70;;;7.10;;
73276;SDS011;61501;43.316;5.372;2023-05-27T02:02:40;14.35;;;8.10;;
73276;SDS011;61501;43.316;5.372;2023-05-27T02:05:06;11.80;;;8.02;;
73276;SDS011;61501;43.316;5.372;2023-05-27T02:07:32;11.07;;;7.50;;
73276;SDS011;61501;43.316;5.372;2023-05-27T02:09:58;10.32;;;7.53;;
73276;SDS011;61501;43.316;5.372;2023-05-27T02:12:24;10.40;;;7.43;;
73276;SDS011;61501;43.316;5.372;2023-05-27T02:14:49;12.40;;;8.02;;
73276;SDS011;61501;43.316;5.372;2023-05-27T02:17:16;12.18;;;8.55;;
73276;SDS011;61501;43.316;5.372;2023-05-27T02:19:42;11.80;;;8.25;;
73276;SDS011;61501;43.316;5.372;2023-05-27T02:22:08;12.50;;;8.77;;
73276;SDS011;61501;43.316;5.372;2023-05-27T02:24:33;12.95;;;8.35;;
73276;SDS011;61501;43.316;5.372;2023-05-27T02:26:59;12.48;;;8.27;;
73276;SDS011;61501;43.316;5.372;2023-05-27T02:29:26;12.82;;;8.82;;
73276;SDS011;61501;43.316;5.372;2023-05-27T02:31:51;12.20;;;8.98;;
73276;SDS011;61501;43.316;5.372;2023-05-27T02:34:17;12.38;;;8.55;;
73276;SDS011;61501;43.316;5.372;2023-05-27T02:36:43;13.70;;;9.50;;
73276;SDS011;61501;43.316;5.372;2023-05-27T02:39:09;14.25;;;8.90;;
73276;SDS011;61501;43.316;5.372;2023-05-27T02:41:35;13.18;;;7.90;;
73276;SDS011;61501;43.316;5.372;2023-05-27T02:44:01;13.02;;;8.68;;
73276;SDS011;61501;43.316;5.372;2023-05-27T02:46:27;11.30;;;7.78;;
73276;SDS011;61501;43.316;5.372;2023-05-27T02:48:53;14.25;;;7.82;;
73276;SDS011;61501;43.316;5.372;2023-05-27T02:51:19;12.93;;;9.13;;
73276;SDS011;61501;43.316;5.372;2023-05-27T02:53:45;12.68;;;7.95;;
73276;SDS011;61501;43.316;5.372;2023-05-27T02:56:11;13.13;;;7.63;;
73276;SDS011;61501;43.316;5.372;2023-05-27T02:58:37;16.60;;;8.48;;
73276;SDS011;61501;43.316;5.372;2023-05-27T03:01:02;14.27;;;8.43;;
73276;SDS011;61501;43.316;5.372;2023-05-27T03:03:30;13.50;;;7.93;;
73276;SDS011;61501;43.316;5.372;2023-05-27T03:05:56;15.18;;;8.60;;
73276;SDS011;61501;43.316;5.372;2023-05-27T03:08:22;14.18;;;8.15;;
73276;SDS011;61501;43.316;5.372;2023-05-27T03:10:47;12.60;;;8.60;;
73276;SDS011;61501;43.316;5.372;2023-05-27T03:13:13;12.40;;;8.48;;
73276;SDS011;61501;43.316;5.372;2023-05-27T03:15:39;12.27;;;7.43;;
73276;SDS011;61501;43.316;5.372;2023-05-27T03:18:05;11.65;;;7.68;;
73276;SDS011;61501;43.316;5.372;2023-05-27T03:20:30;14.07;;;8.98;;
73276;SDS011;61501;43.316;5.372;2023-05-27T03:22:56;14.55;;;7.93;;
73276;SDS011;61501;43.316;5.372;2023-05-27T03:25:22;12.27;;;7.40;;
73276;SDS011;61501;43.316;5.372;2023-05-27T03:27:48;10.75;;;6.85;;
73276;SDS011;61501;43.316;5.372;2023-05-27T03:30:14;11.98;;;6.75;;
73276;SDS011;61501;43.316;5.372;2023-05-27T03:32:40;11.30;;;6.68;;
73276;SDS011;61501;43.316;5.372;2023-05-27T03:35:05;9.38;;;5.80;;
73276;SDS011;61501;43.316;5.372;2023-05-27T03:37:31;11.38;;;6.65;;
73276;SDS011;61501;43.316;5.372;2023-05-27T03:39:57;10.45;;;5.85;;
73276;SDS011;61501;43.316;5.372;2023-05-27T03:42:22;16.30;;;6.18;;
73276;SDS011;61501;43.316;5.372;2023-05-27T03:44:48;11.18;;;6.53;;
73276;SDS011;61501;43.316;5.372;2023-05-27T03:47:14;12.13;;;5.95;;
73276;SDS011;61501;43.316;5.372;2023-05-27T03:49:43;10.57;;;6.22;;
73276;SDS011;61501;43.316;5.372;2023-05-27T03:52:08;11.90;;;5.47;;
73276;SDS011;61501;43.316;5.372;2023-05-27T03:54:34;9.95;;;5.53;;
73276;SDS011;61501;43.316;5.372;2023-05-27T03:57:00;10.70;;;5.05;;
73276;SDS011;61501;43.316;5.372;2023-05-27T03:59:26;9.65;;;5.28;;
73276;SDS011;61501;43.316;5.372;2023-05-27T04:01:51;11.32;;;5.40;;
73276;SDS011;61501;43.316;5.372;2023-05-27T04:04:17;7.75;;;5.25;;
73276;SDS011;61501;43.316;5.372;2023-05-27T04:06:43;8.90;;;5.10;;
73276;SDS011;61501;43.316;5.372;2023-05-27T04:09:09;10.52;;;5.05;;
73276;SDS011;61501;43.316;5.372;2023-05-27T04:11:35;9.77;;;5.05;;
73276;SDS011;61501;43.316;5.372;2023-05-27T04:14:00;6.55;;;4.30;;
73276;SDS011;61501;43.316;5.372;2023-05-27T04:16:26;12.27;;;5.72;;
73276;SDS011;61501;43.316;5.372;2023-05-27T04:18:52;7.45;;;5.57;;
73276;SDS011;61501;43.316;5.372;2023-05-27T04:21:18;6.93;;;5.07;;
73276;SDS011;61501;43.316;5.372;2023-05-27T04:23:43;8.52;;;4.25;;
73276;SDS011;61501;43.316;5.372;2023-05-27T04:26:09;9.30;;;4.43;;
73276;SDS011;61501;43.316;5.372;2023-05-27T04:28:35;7.78;;;4.70;;
73276;SDS011;61501;43.316;5.372;2023-05-27T04:31:01;9.55;;;4.55;;
73276;SDS011;61501;43.316;5.372;2023-05-27T04:33:27;12.18;;;5.05;;
73276;SDS011;61501;43.316;5.372;2023-05-27T04:35:53;7.90;;;4.90;;
73276;SDS011;61501;43.316;5.372;2023-05-27T04:38:20;9.18;;;4.63;;
73276;SDS011;61501;43.316;5.372;2023-05-27T04:40:49;7.78;;;4.72;;
73276;SDS011;61501;43.316;5.372;2023-05-27T04:43:21;9.73;;;5.35;;
73276;SDS011;61501;43.316;5.372;2023-05-27T04:45:48;8.38;;;4.57;;
73276;SDS011;61501;43.316;5.372;2023-05-27T04:48:14;9.93;;;4.85;;
73276;SDS011;61501;43.316;5.372;2023-05-27T04:50:40;11.20;;;5.35;;
73276;SDS011;61501;43.316;5.372;2023-05-27T04:53:06;7.70;;;4.97;;
73276;SDS011;61501;43.316;5.372;2023-05-27T04:55:32;8.98;;;5.10;;
73276;SDS011;61501;43.316;5.372;2023-05-27T04:57:58;10.23;;;4.75;;
73276;SDS011;61501;43.316;5.372;2023-05-27T05:00:27;11.35;;;5.10;;
73276;SDS011;61501;43.316;5.372;2023-05-27T05:03:18;11.25;;;5.47;;
73276;SDS011;61501;43.316;5.372;2023-05-27T05:05:50;10.65;;;5.50;;
73276;SDS011;61501;43.316;5.372;2023-05-27T05:08:19;9.93;;;5.80;;
73276;SDS011;61501;43.316;5.372;2023-05-27T05:10:46;10.07;;;5.10;;
73276;SDS011;61501;43.316;5.372;2023-05-27T05:13:13;9.27;;;5.70;;
73276;SDS011;61501;43.316;5.372;2023-05-27T05:15:40;9.60;;;5.53;;
73276;SDS011;61501;43.316;5.372;2023-05-27T05:18:08;9.93;;;6.07;;
73276;SDS011;61501;43.316;5.372;2023-05-27T05:20:35;10.07;;;5.53;;
73276;SDS011;61501;43.316;5.372;2023-05-27T05:23:00;8.82;;;5.97;;
73276;SDS011;61501;43.316;5.372;2023-05-27T05:25:26;11.05;;;6.38;;
73276;SDS011;61501;43.316;5.372;2023-05-27T05:27:52;8.80;;;5.72;;
73276;SDS011;61501;43.316;5.372;2023-05-27T05:30:18;11.18;;;5.75;;
73276;SDS011;61501;43.316;5.372;2023-05-27T05:32:44;11.48;;;5.75;;
73276;SDS011;61501;43.316;5.372;2023-05-27T05:35:10;9.00;;;6.05;;
73276;SDS011;61501;43.316;5.372;2023-05-27T05:37:35;11.43;;;6.10;;
73276;SDS011;61501;43.316;5.372;2023-05-27T05:40:01;10.95;;;6.03;;
73276;SDS011;61501;43.316;5.372;2023-05-27T05:42:27;6.88;;;5.18;;
73276;SDS011;61501;43.316;5.372;2023-05-27T05:44:52;14.73;;;5.38;;
73276;SDS011;61501;43.316;5.372;2023-05-27T05:47:18;12.10;;;5.13;;
73276;SDS011;61501;43.316;5.372;2023-05-27T05:49:44;10.70;;;5.55;;
73276;SDS011;61501;43.316;5.372;2023-05-27T05:52:09;10.27;;;6.00;;
73276;SDS011;61501;43.316;5.372;2023-05-27T05:54:35;9.15;;;5.65;;
73276;SDS011;61501;43.316;5.372;2023-05-27T05:57:01;10.50;;;5.10;;
73276;SDS011;61501;43.316;5.372;2023-05-27T05:59:30;14.88;;;5.85;;
73276;SDS011;61501;43.316;5.372;2023-05-27T06:01:56;15.18;;;6.45;;
73276;SDS011;61501;43.316;5.372;2023-05-27T06:04:22;17.17;;;6.60;;
73276;SDS011;61501;43.316;5.372;2023-05-27T06:06:48;24.95;;;6.80;;
73276;SDS011;61501;43.316;5.372;2023-05-27T06:09:13;13.63;;;6.85;;
73276;SDS011;61501;43.316;5.372;2023-05-27T06:11:39;13.82;;;6.40;;
73276;SDS011;61501;43.316;5.372;2023-05-27T06:14:05;9.20;;;5.82;;
73276;SDS011;61501;43.316;5.372;2023-05-27T06:16:32;13.50;;;6.30;;
73276;SDS011;61501;43.316;5.372;2023-05-27T06:18:58;19.38;;;7.45;;
73276;SDS011;61501;43.316;5.372;2023-05-27T06:21:23;20.42;;;8.00;;
73276;SDS011;61501;43.316;5.372;2023-05-27T06:23:49;21.17;;;7.35;;
73276;SDS011;61501;43.316;5.372;2023-05-27T06:26:15;18.58;;;7.50;;
73276;SDS011;61501;43.316;5.372;2023-05-27T06:28:40;18.55;;;7.43;;
73276;SDS011;61501;43.316;5.372;2023-05-27T06:31:06;31.85;;;9.95;;
73276;SDS011;61501;43.316;5.372;2023-05-27T06:33:32;20.42;;;7.30;;
73276;SDS011;61501;43.316;5.372;2023-05-27T06:35:57;14.50;;;6.07;;
73276;SDS011;61501;43.316;5.372;2023-05-27T06:38:23;19.35;;;6.95;;
73276;SDS011;61501;43.316;5.372;2023-05-27T06:40:48;12.48;;;6.78;;
73276;SDS011;61501;43.316;5.372;2023-05-27T06:43:14;15.45;;;7.13;;
73276;SDS011;61501;43.316;5.372;2023-05-27T06:45:40;17.85;;;7.75;;
73276;SDS011;61501;43.316;5.372;2023-05-27T06:48:06;22.23;;;8.52;;
73276;SDS011;61501;43.316;5.372;2023-05-27T06:50:32;17.85;;;7.82;;
73276;SDS011;61501;43.316;5.372;2023-05-27T06:52:58;15.85;;;7.97;;
73276;SDS011;61501;43.316;5.372;2023-05-27T06:55:23;15.40;;;7.95;;
73276;SDS011;61501;43.316;5.372;2023-05-27T06:57:49;14.80;;;7.97;;
73276;SDS011;61501;43.316;5.372;2023-05-27T07:00:15;18.20;;;7.30;;
73276;SDS011;61501;43.316;5.372;2023-05-27T07:02:41;17.02;;;7.93;;
73276;SDS011;61501;43.316;5.372;2023-05-27T07:05:06;15.05;;;7.38;;
73276;SDS011;61501;43.316;5.372;2023-05-27T07:07:32;13.10;;;7.30;;
73276;SDS011;61501;43.316;5.372;2023-05-27T07:09:58;14.32;;;7.75;;
73276;SDS011;61501;43.316;5.372;2023-05-27T07:12:23;14.50;;;7.03;;
73276;SDS011;61501;43.316;5.372;2023-05-27T07:14:50;12.25;;;6.88;;
73276;SDS011;61501;43.316;5.372;2023-05-27T07:17:15;16.90;;;7.00;;
73276;SDS011;61501;43.316;5.372;2023-05-27T07:19:41;13.23;;;7.30;;
73276;SDS011;61501;43.316;5.372;2023-05-27T07:22:07;12.55;;;6.85;;
73276;SDS011;61501;43.316;5.372;2023-05-27T07:24:32;10.55;;;6.45;;
73276;SDS011;61501;43.316;5.372;2023-05-27T07:26:58;11.55;;;6.53;;
73276;SDS011;61501;43.316;5.372;2023-05-27T07:29:33;13.75;;;6.75;;
73276;SDS011;61501;43.316;5.372;2023-05-27T07:32:00;17.58;;;6.55;;
73276;SDS011;61501;43.316;5.372;2023-05-27T07:34:25;10.13;;;5.90;;
73276;SDS011;61501;43.316;5.372;2023-05-27T07:36:51;11.80;;;6.00;;
73276;SDS011;61501;43.316;5.372;2023-05-27T07:39:17;14.55;;;6.35;;
73276;SDS011;61501;43.316;5.372;2023-05-27T07:41:42;9.93;;;5.40;;
73276;SDS011;61501;43.316;5.372;2023-05-27T07:44:08;13.02;;;5.22;;
73276;SDS011;61501;43.316;5.372;2023-05-27T07:46:33;9.75;;;5.95;;
73276;SDS011;61501;43.316;5.372;2023-05-27T07:48:59;13.07;;;5.93;;
73276;SDS011;61501;43.316;5.372;2023-05-27T07:51:25;13.55;;;6.75;;
73276;SDS011;61501;43.316;5.372;2023-05-27T07:53:51;11.48;;;6.55;;
73276;SDS011;61501;43.316;5.372;2023-05-27T07:56:16;13.63;;;7.05;;
73276;SDS011;61501;43.316;5.372;2023-05-27T07:58:42;12.38;;;6.97;;
73276;SDS011;61501;43.316;5.372;2023-05-27T08:01:08;19.55;;;6.65;;
73276;SDS011;61501;43.316;5.372;2023-05-27T08:03:33;19.88;;;8.20;;
73276;SDS011;61501;43.316;5.372;2023-05-27T08:05:59;11.90;;;7.80;;
73276;SDS011;61501;43.316;5.372;2023-05-27T08:08:25;16.33;;;9.23;;
73276;SDS011;61501;43.316;5.372;2023-05-27T08:10:50;18.90;;;8.50;;
73276;SDS011;61501;43.316;5.372;2023-05-27T08:13:16;16.00;;;8.43;;
73276;SDS011;61501;43.316;5.372;2023-05-27T08:15:42;16.63;;;8.32;;
73276;SDS011;61501;43.316;5.372;2023-05-27T08:18:09;15.43;;;7.45;;
73276;SDS011;61501;43.316;5.372;2023-05-27T08:20:35;15.43;;;7.50;;
73276;SDS011;61501;43.316;5.372;2023-05-27T08:23:00;13.15;;;7.28;;
73276;SDS011;61501;43.316;5.372;2023-05-27T08:25:26;12.43;;;8.05;;
73276;SDS011;61501;43.316;5.372;2023-05-27T08:27:55;13.77;;;8.85;;
73276;SDS011;61501;43.316;5.372;2023-05-27T08:30:26;11.65;;;6.55;;
73276;SDS011;61501;43.316;5.372;2023-05-27T08:32:55;11.45;;;6.45;;
73276;SDS011;61501;43.316;5.372;2023-05-27T08:35:21;17.58;;;8.18;;
73276;SDS011;61501;43.316;5.372;2023-05-27T08:37:47;13.93;;;7.70;;
73276;SDS011;61501;43.316;5.372;2023-05-27T08:40:14;14.85;;;7.53;;
73276;SDS011;61501;43.316;5.372;2023-05-27T08:42:41;15.57;;;8.70;;
73276;SDS011;61501;43.316;5.372;2023-05-27T08:45:07;15.50;;;7.80;;
73276;SDS011;61501;43.316;5.372;2023-05-27T08:47:34;12.70;;;8.38;;
73276;SDS011;61501;43.316;5.372;2023-05-27T08:50:00;13.07;;;8.82;;
73276;SDS011;61501;43.316;5.372;2023-05-27T08:52:28;18.77;;;10.05;;
73276;SDS011;61501;43.316;5.372;2023-05-27T08:54:56;16.20;;;11.00;;
73276;SDS011;61501;43.316;5.372;2023-05-27T08:57:22;17.30;;;10.68;;
73276;SDS011;61501;43.316;5.372;2023-05-27T08:59:56;17.63;;;9.85;;
73276;SDS011;61501;43.316;5.372;2023-05-27T09:02:22;17.17;;;10.35;;
73276;SDS011;61501;43.316;5.372;2023-05-27T09:04:49;16.65;;;9.68;;
73276;SDS011;61501;43.316;5.372;2023-05-27T09:07:15;13.25;;;8.93;;
73276;SDS011;61501;43.316;5.372;2023-05-27T09:09:41;16.45;;;9.02;;
73276;SDS011;61501;43.316;5.372;2023-05-27T09:12:08;22.27;;;10.25;;
73276;SDS011;61501;43.316;5.372;2023-05-27T09:14:34;14.80;;;8.63;;
73276;SDS011;61501;43.316;5.372;2023-05-27T09:17:06;12.25;;;7.40;;
73276;SDS011;61501;43.316;5.372;2023-05-27T09:19:33;14.27;;;7.35;;
73276;SDS011;61501;43.316;5.372;2023-05-27T09:21:59;12.60;;;8.07;;
73276;SDS011;61501;43.316;5.372;2023-05-27T09:24:25;13.43;;;7.55;;
73276;SDS011;61501;43.316;5.372;2023-05-27T09:26:52;12.43;;;7.88;;
73276;SDS011;61501;43.316;5.372;2023-05-27T09:29:19;11.50;;;7.72;;
73276;SDS011;61501;43.316;5.372;2023-05-27T09:31:47;12.40;;;8.10;;
73276;SDS011;61501;43.316;5.372;2023-05-27T09:34:14;9.35;;;7.65;;
73276;SDS011;61501;43.316;5.372;2023-05-27T09:36:47;10.75;;;8.73;;
73276;SDS011;61501;43.316;5.372;2023-05-27T09:39:16;13.77;;;9.10;;
73276;SDS011;61501;43.316;5.372;2023-05-27T09:41:49;12.27;;;9.30;;
73276;SDS011;61501;43.316;5.372;2023-05-27T09:44:15;11.55;;;8.65;;
73276;SDS011;61501;43.316;5.372;2023-05-27T09:46:41;13.20;;;8.32;;
73276;SDS011;61501;43.316;5.372;2023-05-27T09:49:09;11.48;;;9.38;;
73276;SDS011;61501;43.316;5.372;2023-05-27T09:51:35;13.73;;;9.52;;
73276;SDS011;61501;43.316;5.372;2023-05-27T09:54:03;16.10;;;9.93;;
73276;SDS011;61501;43.316;5.372;2023-05-27T09:56:33;14.43;;;9.48;;
73276;SDS011;61501;43.316;5.372;2023-05-27T09:58:59;13.13;;;9.50;;
73276;SDS011;61501;43.316;5.372;2023-05-27T10:01:26;11.55;;;9.27;;
73276;SDS011;61501;43.316;5.372;2023-05-27T10:03:54;13.85;;;11.07;;
73276;SDS011;61501;43.316;5.372;2023-05-27T10:06:21;17.13;;;10.77;;
73276;SDS011;61501;43.316;5.372;2023-05-27T10:08:49;14.70;;;11.63;;
73276;SDS011;61501;43.316;5.372;2023-05-27T10:11:17;10.73;;;9.40;;
73276;SDS011;61501;43.316;5.372;2023-05-27T10:13:44;13.57;;;11.05;;
73276;SDS011;61501;43.316;5.372;2023-05-27T10:16:20;10.18;;;8.63;;
73276;SDS011;61501;43.316;5.372;2023-05-27T10:18:46;13.38;;;8.55;;
73276;SDS011;61501;43.316;5.372;2023-05-27T10:21:20;10.25;;;8.02;;
73276;SDS011;61501;43.316;5.372;2023-05-27T10:24:00;12.85;;;9.23;;
73276;SDS011;61501;43.316;5.372;2023-05-27T10:26:33;12.30;;;8.80;;
73276;SDS011;61501;43.316;5.372;2023-05-27T10:31:47;9.70;;;8.52;;
73276;SDS011;61501;43.316;5.372;2023-05-27T10:34:14;9.80;;;8.80;;
73276;SDS011;61501;43.316;5.372;2023-05-27T10:36:40;12.48;;;9.43;;
73276;SDS011;61501;43.316;5.372;2023-05-27T10:39:12;10.77;;;9.68;;
73276;SDS011;61501;43.316;5.372;2023-05-27T10:41:42;13.95;;;9.90;;
73276;SDS011;61501;43.316;5.372;2023-05-27T10:44:24;10.98;;;9.45;;
73276;SDS011;61501;43.316;5.372;2023-05-27T10:47:00;12.05;;;10.38;;
73276;SDS011;61501;43.316;5.372;2023-05-27T10:49:32;13.98;;;9.68;;
73276;SDS011;61501;43.316;5.372;2023-05-27T10:54:45;12.10;;;9.55;;
73276;SDS011;61501;43.316;5.372;2023-05-27T10:57:12;11.73;;;9.65;;
73276;SDS011;61501;43.316;5.372;2023-05-27T10:59:51;14.27;;;9.50;;
73276;SDS011;61501;43.316;5.372;2023-05-27T11:02:19;17.17;;;10.20;;
73276;SDS011;61501;43.316;5.372;2023-05-27T11:04:45;13.10;;;9.55;;
73276;SDS011;61501;43.316;5.372;2023-05-27T11:07:17;11.68;;;9.73;;
73276;SDS011;61501;43.316;5.372;2023-05-27T11:09:47;13.60;;;9.73;;
73276;SDS011;61501;43.316;5.372;2023-05-27T11:12:14;14.02;;;11.30;;
73276;SDS011;61501;43.316;5.372;2023-05-27T11:14:44;14.88;;;10.02;;
73276;SDS011;61501;43.316;5.372;2023-05-27T11:17:11;13.80;;;10.32;;
73276;SDS011;61501;43.316;5.372;2023-05-27T11:19:40;14.95;;;10.48;;
73276;SDS011;61501;43.316;5.372;2023-05-27T11:22:10;14.50;;;10.93;;
73276;SDS011;61501;43.316;5.372;2023-05-27T11:24:36;13.20;;;10.60;;
73276;SDS011;61501;43.316;5.372;2023-05-27T11:27:12;13.23;;;11.73;;
73276;SDS011;61501;43.316;5.372;2023-05-27T11:29:39;13.80;;;11.40;;
73276;SDS011;61501;43.316;5.372;2023-05-27T11:32:15;13.88;;;12.23;;
73276;SDS011;61501;43.316;5.372;2023-05-27T11:34:45;15.98;;;12.65;;
73276;SDS011;61501;43.316;5.372;2023-05-27T11:37:12;14.02;;;12.38;;
73276;SDS011;61501;43.316;5.372;2023-05-27T11:39:48;14.55;;;13.15;;
73276;SDS011;61501;43.316;5.372;2023-05-27T11:42:20;16.02;;;12.90;;
73276;SDS011;61501;43.316;5.372;2023-05-27T11:44:52;16.80;;;14.10;;
73276;SDS011;61501;43.316;5.372;2023-05-27T11:47:19;15.40;;;13.75;;
73276;SDS011;61501;43.316;5.372;2023-05-27T11:49:50;20.50;;;15.60;;
73276;SDS011;61501;43.316;5.372;2023-05-27T11:52:17;18.45;;;14.68;;
73276;SDS011;61501;43.316;5.372;2023-05-27T11:54:43;16.67;;;13.98;;
73276;SDS011;61501;43.316;5.372;2023-05-27T11:57:09;15.63;;;14.00;;
73276;SDS011;61501;43.316;5.372;2023-05-27T11:59:38;17.35;;;14.23;;
73276;SDS011;61501;43.316;5.372;2023-05-27T12:02:03;15.18;;;13.45;;
73276;SDS011;61501;43.316;5.372;2023-05-27T12:04:29;17.92;;;13.43;;
73276;SDS011;61501;43.316;5.372;2023-05-27T12:06:55;14.88;;;13.27;;
73276;SDS011;61501;43.316;5.372;2023-05-27T12:09:23;16.52;;;13.25;;
73276;SDS011;61501;43.316;5.372;2023-05-27T12:11:49;13.73;;;11.82;;
73276;SDS011;61501;43.316;5.372;2023-05-27T12:14:14;13.65;;;11.32;;
73276;SDS011;61501;43.316;5.372;2023-05-27T12:16:40;16.23;;;11.20;;
73276;SDS011;61501;43.316;5.372;2023-05-27T12:19:06;12.27;;;10.95;;
73276;SDS011;61501;43.316;5.372;2023-05-27T12:21:31;13.18;;;10.52;;
73276;SDS011;61501;43.316;5.372;2023-05-27T12:23:57;17.23;;;11.27;;
73276;SDS011;61501;43.316;5.372;2023-05-27T12:26:23;13.38;;;11.45;;
73276;SDS011;61501;43.316;5.372;2023-05-27T12:28:49;12.82;;;10.30;;
73276;SDS011;61501;43.316;5.372;2023-05-27T12:31:15;14.82;;;10.27;;
73276;SDS011;61501;43.316;5.372;2023-05-27T12:33:41;14.40;;;10.82;;
73276;SDS011;61501;43.316;5.372;2023-05-27T12:36:07;14.20;;;10.95;;
73276;SDS011;61501;43.316;5.372;2023-05-27T12:38:33;14.90;;;10.50;;
73276;SDS011;61501;43.316;5.372;2023-05-27T12:40:58;13.45;;;10.38;;
73276;SDS011;61501;43.316;5.372;2023-05-27T12:43:25;12.52;;;10.52;;
73276;SDS011;61501;43.316;5.372;2023-05-27T12:45:50;12.60;;;10.00;;
73276;SDS011;61501;43.316;5.372;2023-05-27T12:48:17;11.98;;;9.45;;
73276;SDS011;61501;43.316;5.372;2023-05-27T12:50:43;11.35;;;9.82;;
73276;SDS011;61501;43.316;5.372;2023-05-27T12:53:09;12.48;;;9.23;;
73276;SDS011;61501;43.316;5.372;2023-05-27T12:55:35;12.50;;;9.55;;
73276;SDS011;61501;43.316;5.372;2023-05-27T12:58:01;11.65;;;10.25;;
73276;SDS011;61501;43.316;5.372;2023-05-27T13:00:27;13.23;;;10.50;;
73276;SDS011;61501;43.316;5.372;2023-05-27T13:02:53;14.95;;;10.93;;
73276;SDS011;61501;43.316;5.372;2023-05-27T13:05:19;13.40;;;11.70;;
73276;SDS011;61501;43.316;5.372;2023-05-27T13:07:55;12.63;;;10.15;;
73276;SDS011;61501;43.316;5.372;2023-05-27T13:10:25;13.27;;;10.98;;
73276;SDS011;61501;43.316;5.372;2023-05-27T13:12:51;14.23;;;10.10;;
73276;SDS011;61501;43.316;5.372;2023-05-27T13:15:18;12.45;;;11.25;;
73276;SDS011;61501;43.316;5.372;2023-05-27T13:17:45;15.68;;;10.68;;
73276;SDS011;61501;43.316;5.372;2023-05-27T13:20:12;11.70;;;10.50;;
73276;SDS011;61501;43.316;5.372;2023-05-27T13:22:39;11.70;;;10.48;;
73276;SDS011;61501;43.316;5.372;2023-05-27T13:25:05;13.65;;;10.18;;
73276;SDS011;61501;43.316;5.372;2023-05-27T13:27:32;16.88;;;12.00;;
73276;SDS011;61501;43.316;5.372;2023-05-27T13:29:57;13.35;;;10.68;;
73276;SDS011;61501;43.316;5.372;2023-05-27T13:32:23;15.30;;;10.40;;
73276;SDS011;61501;43.316;5.372;2023-05-27T13:34:49;11.35;;;9.70;;
73276;SDS011;61501;43.316;5.372;2023-05-27T13:37:16;11.20;;;10.07;;
73276;SDS011;61501;43.316;5.372;2023-05-27T13:39:42;12.25;;;10.02;;
73276;SDS011;61501;43.316;5.372;2023-05-27T13:42:11;11.32;;;8.75;;
73276;SDS011;61501;43.316;5.372;2023-05-27T13:44:37;11.35;;;8.77;;
73276;SDS011;61501;43.316;5.372;2023-05-27T13:47:03;9.77;;;7.88;;
73276;SDS011;61501;43.316;5.372;2023-05-27T13:49:29;13.07;;;9.00;;
73276;SDS011;61501;43.316;5.372;2023-05-27T13:51:55;11.98;;;8.80;;
73276;SDS011;61501;43.316;5.372;2023-05-27T13:54:21;9.95;;;8.13;;
73276;SDS011;61501;43.316;5.372;2023-05-27T13:56:47;10.93;;;7.95;;
73276;SDS011;61501;43.316;5.372;2023-05-27T13:59:12;9.38;;;8.25;;
73276;SDS011;61501;43.316;5.372;2023-05-27T14:01:39;11.05;;;9.02;;
73276;SDS011;61501;43.316;5.372;2023-05-27T14:04:05;10.18;;;8.77;;
73276;SDS011;61501;43.316;5.372;2023-05-27T14:06:31;9.60;;;8.68;;
73276;SDS011;61501;43.316;5.372;2023-05-27T14:08:57;10.85;;;9.20;;
73276;SDS011;61501;43.316;5.372;2023-05-27T14:11:23;11.68;;;9.40;;
73276;SDS011;61501;43.316;5.372;2023-05-27T14:13:50;10.98;;;8.77;;
73276;SDS011;61501;43.316;5.372;2023-05-27T14:16:17;10.80;;;8.57;;
73276;SDS011;61501;43.316;5.372;2023-05-27T14:18:43;10.07;;;9.07;;
73276;SDS011;61501;43.316;5.372;2023-05-27T14:21:09;10.02;;;9.00;;
73276;SDS011;61501;43.316;5.372;2023-05-27T14:23:34;11.85;;;10.55;;
73276;SDS011;61501;43.316;5.372;2023-05-27T14:26:00;12.55;;;11.23;;
73276;SDS011;61501;43.316;5.372;2023-05-27T14:28:26;11.60;;;10.00;;
73276;SDS011;61501;43.316;5.372;2023-05-27T14:30:51;10.82;;;9.73;;
73276;SDS011;61501;43.316;5.372;2023-05-27T14:33:17;14.38;;;11.10;;
73276;SDS011;61501;43.316;5.372;2023-05-27T14:35:43;14.00;;;9.18;;
73276;SDS011;61501;43.316;5.372;2023-05-27T14:38:09;12.80;;;9.32;;
73276;SDS011;61501;43.316;5.372;2023-05-27T14:40:36;11.02;;;10.00;;
73276;SDS011;61501;43.316;5.372;2023-05-27T14:43:01;9.90;;;8.85;;